Time;durP1;ratioP1;P1;durP2;ratioP2;P2;SDS_P1;SDS_P2;PMS_P1;PMS_P2;Temp;Humidity;BMP_temperature;BMP_pressure;BME280_temperature;BME280_humidity;BME280_pressure;Samples;Min_cycle;Max_cycle;Signal;HPM_P1;HPM_P2
2022/03/12 00:01:14;;;;;;;6.70;4.77;;;;;;;;;;4882756;29;20235;-73
2022/03/12 00:03:40;;;;;;;7.83;4.73;;;;;;;;;;4900484;29;20308;-73
2022/03/12 00:06:09;;;;;;;6.17;4.90;;;;;;;;;;4916550;29;20284;-73
2022/03/12 00:08:44;;;;;;;7.60;5.00;;;;;;;;;;4885454;29;20233;-73
2022/03/12 00:11:19;;;;;;;5.37;4.13;;;;;;;;;;4914579;29;20231;-73
2022/03/12 00:13:45;;;;;;;5.60;4.63;;;;;;;;;;4907927;29;20684;-73
2022/03/12 00:16:14;;;;;;;6.47;4.50;;;;;;;;;;4914785;29;20235;-73
2022/03/12 00:18:42;;;;;;;8.13;4.80;;;;;;;;;;4877263;29;20336;-74
2022/03/12 00:21:14;;;;;;;5.67;4.50;;;;;;;;;;4889515;29;20217;-73
2022/03/12 00:23:44;;;;;;;7.20;4.80;;;;;;;;;;4875273;29;20283;-72
2022/03/12 00:26:16;;;;;;;7.90;5.00;;;;;;;;;;4898301;29;20228;-73
2022/03/12 00:28:43;;;;;;;6.13;4.93;;;;;;;;;;4920885;29;20406;-73
2022/03/12 00:31:12;;;;;;;7.07;4.53;;;;;;;;;;4914340;29;20271;-73
2022/03/12 00:33:40;;;;;;;5.57;4.90;;;;;;;;;;4877569;29;20224;-73
2022/03/12 00:36:09;;;;;;;7.30;4.87;;;;;;;;;;4909934;29;20279;-74
2022/03/12 00:38:34;;;;;;;5.23;4.57;;;;;;;;;;4905282;29;20224;-73
2022/03/12 00:41:02;;;;;;;5.90;4.30;;;;;;;;;;4894391;29;20257;-73
2022/03/12 00:43:27;;;;;;;8.03;4.60;;;;;;;;;;4899331;29;20256;-73
2022/03/12 00:45:53;;;;;;;6.30;4.37;;;;;;;;;;4880779;29;20228;-74
2022/03/12 00:48:18;;;;;;;6.00;4.90;;;;;;;;;;4900037;29;20315;-74
2022/03/12 00:50:46;;;;;;;5.87;4.27;;;;;;;;;;4915896;29;20236;-74
2022/03/12 00:53:12;;;;;;;8.07;4.43;;;;;;;;;;4877961;29;20235;-74
2022/03/12 00:55:37;;;;;;;8.27;4.40;;;;;;;;;;4913793;29;20319;-73
2022/03/12 00:58:08;;;;;;;7.37;4.60;;;;;;;;;;4880975;29;20445;-75
2022/03/12 01:00:34;;;;;;;6.23;4.50;;;;;;;;;;4913733;29;20267;-74
2022/03/12 01:03:01;;;;;;;5.17;4.07;;;;;;;;;;4894850;29;20717;-74
2022/03/12 01:05:49;;;;;;;7.17;4.23;;;;;;;;;;4894851;29;20278;-74
2022/03/12 01:08:15;;;;;;;5.93;4.00;;;;;;;;;;4898377;29;20227;-74
2022/03/12 01:10:46;;;;;;;6.30;4.70;;;;;;;;;;4884104;29;20224;-74
2022/03/12 01:13:12;;;;;;;5.90;4.47;;;;;;;;;;4893099;29;20220;-74
2022/03/12 01:15:39;;;;;;;5.43;4.10;;;;;;;;;;4915142;29;20667;-74
2022/03/12 01:18:09;;;;;;;6.37;4.30;;;;;;;;;;4881111;29;20319;-74
2022/03/12 01:20:34;;;;;;;5.80;4.57;;;;;;;;;;4897997;29;20228;-74
2022/03/12 01:23:00;;;;;;;7.50;4.60;;;;;;;;;;4869976;29;20266;-73
2022/03/12 01:25:30;;;;;;;5.30;4.23;;;;;;;;;;4879201;29;20271;-73
2022/03/12 01:28:00;;;;;;;5.53;4.20;;;;;;;;;;4892248;29;20715;-74
2022/03/12 01:30:28;;;;;;;7.63;4.67;;;;;;;;;;4873346;29;20236;-74
2022/03/12 01:32:53;;;;;;;5.87;4.60;;;;;;;;;;4886869;29;20629;-74
2022/03/12 01:35:19;;;;;;;7.80;4.40;;;;;;;;;;4881072;29;20216;-74
2022/03/12 01:37:44;;;;;;;6.00;4.50;;;;;;;;;;4878829;29;20612;-74
2022/03/12 01:40:11;;;;;;;8.00;4.80;;;;;;;;;;4897239;29;20235;-74
2022/03/12 01:42:39;;;;;;;7.13;4.60;;;;;;;;;;4866658;29;20228;-74
2022/03/12 01:45:10;;;;;;;6.70;4.50;;;;;;;;;;4885246;29;20280;-73
2022/03/12 01:47:40;;;;;;;5.63;4.27;;;;;;;;;;4897338;29;20236;-73
2022/03/12 01:50:06;;;;;;;6.63;4.40;;;;;;;;;;4874919;29;20331;-73
2022/03/12 01:52:31;;;;;;;6.67;4.53;;;;;;;;;;4899653;29;20284;-73
2022/03/12 01:54:59;;;;;;;5.60;4.33;;;;;;;;;;4915664;29;20231;-74
2022/03/12 01:57:27;;;;;;;5.50;4.23;;;;;;;;;;4911093;29;20240;-73
2022/03/12 01:59:57;;;;;;;6.97;4.17;;;;;;;;;;4904928;29;20231;-73
2022/03/12 02:02:28;;;;;;;5.77;4.13;;;;;;;;;;4897859;29;20224;-74
2022/03/12 02:04:55;;;;;;;7.57;4.87;;;;;;;;;;4882425;29;20298;-74
2022/03/12 02:07:23;;;;;;;6.77;4.67;;;;;;;;;;4912710;29;20642;-74
2022/03/12 02:09:51;;;;;;;6.37;4.40;;;;;;;;;;4888596;29;20228;-73
2022/03/12 02:12:16;;;;;;;6.70;4.50;;;;;;;;;;4889155;29;20232;-73
2022/03/12 02:14:42;;;;;;;6.30;4.40;;;;;;;;;;4871176;29;20307;-74
2022/03/12 02:17:09;;;;;;;5.97;4.50;;;;;;;;;;4880267;29;20819;-74
2022/03/12 02:19:35;;;;;;;6.47;4.20;;;;;;;;;;4897480;29;20710;-73
2022/03/12 02:22:08;;;;;;;5.37;4.40;;;;;;;;;;4886161;29;20228;-73
2022/03/12 02:24:36;;;;;;;8.70;4.63;;;;;;;;;;4879304;29;20272;-75
2022/03/12 02:27:04;;;;;;;7.47;4.23;;;;;;;;;;4874138;29;20604;-74
2022/03/12 02:29:31;;;;;;;6.20;4.37;;;;;;;;;;4884350;29;20252;-74
2022/03/12 02:32:03;;;;;;;6.57;4.40;;;;;;;;;;4909693;29;20228;-74
2022/03/12 02:34:38;;;;;;;7.50;4.47;;;;;;;;;;4864779;29;20224;-74
2022/03/12 02:37:04;;;;;;;6.97;4.20;;;;;;;;;;4880790;29;20389;-72
2022/03/12 02:39:34;;;;;;;5.33;4.27;;;;;;;;;;4879767;29;20344;-74
2022/03/12 02:42:03;;;;;;;4.43;3.97;;;;;;;;;;4911887;29;20263;-73
2022/03/12 02:44:31;;;;;;;5.43;4.07;;;;;;;;;;4913696;29;20718;-73
2022/03/12 02:47:17;;;;;;;6.70;4.37;;;;;;;;;;4894650;29;20312;-73
2022/03/12 02:49:50;;;;;;;8.57;4.80;;;;;;;;;;4914752;29;20259;-73
2022/03/12 02:52:16;;;;;;;5.30;4.13;;;;;;;;;;4915782;29;20323;-73
2022/03/12 02:54:42;;;;;;;5.57;4.27;;;;;;;;;;4870074;29;20313;-75
2022/03/12 02:57:09;;;;;;;7.10;4.37;;;;;;;;;;4892284;29;20264;-73
2022/03/12 02:59:42;;;;;;;5.77;4.10;;;;;;;;;;4916479;29;20220;-74
2022/03/12 03:02:09;;;;;;;5.07;3.90;;;;;;;;;;4916301;29;20694;-73
2022/03/12 03:04:38;;;;;;;5.97;4.20;;;;;;;;;;4918355;29;20240;-74
2022/03/12 03:07:04;;;;;;;5.67;3.83;;;;;;;;;;4894230;29;20255;-73
2022/03/12 03:09:30;;;;;;;6.43;3.80;;;;;;;;;;4900299;29;20250;-72
2022/03/12 03:11:57;;;;;;;4.80;3.90;;;;;;;;;;4900288;29;20228;-74
2022/03/12 03:14:27;;;;;;;6.97;4.77;;;;;;;;;;4913885;29;20227;-74
2022/03/12 03:16:54;;;;;;;5.63;4.10;;;;;;;;;;4917004;29;20295;-73
2022/03/12 03:19:24;;;;;;;5.10;3.97;;;;;;;;;;4898995;29;20228;-74
2022/03/12 03:21:53;;;;;;;5.77;4.00;;;;;;;;;;4890019;29;20243;-73
2022/03/12 03:24:21;;;;;;;6.10;4.27;;;;;;;;;;4900244;29;20634;-73
2022/03/12 03:26:47;;;;;;;5.40;4.10;;;;;;;;;;4900601;29;20327;-73
2022/03/12 03:29:13;;;;;;;6.90;4.30;;;;;;;;;;4915546;29;20247;-73
2022/03/12 03:31:44;;;;;;;6.40;4.03;;;;;;;;;;4894350;29;20279;-74
2022/03/12 03:34:10;;;;;;;5.87;4.20;;;;;;;;;;4883908;29;20304;-74
2022/03/12 03:36:38;;;;;;;6.70;4.33;;;;;;;;;;4900332;29;20665;-73
2022/03/12 03:39:04;;;;;;;5.03;4.00;;;;;;;;;;4883961;29;20235;-73
2022/03/12 03:41:30;;;;;;;4.87;4.30;;;;;;;;;;4916012;29;20878;-73
2022/03/12 03:43:58;;;;;;;6.23;4.00;;;;;;;;;;4875742;29;20239;-73
2022/03/12 03:46:26;;;;;;;6.47;4.07;;;;;;;;;;4908482;29;20215;-73
2022/03/12 03:48:52;;;;;;;7.43;4.37;;;;;;;;;;4900429;29;20372;-73
2022/03/12 03:51:20;;;;;;;7.30;4.20;;;;;;;;;;4884288;29;20325;-72
2022/03/12 03:53:50;;;;;;;7.50;3.70;;;;;;;;;;4908056;29;20239;-73
2022/03/12 03:56:16;;;;;;;6.33;4.10;;;;;;;;;;4911796;29;20232;-73
2022/03/12 03:58:42;;;;;;;4.70;3.73;;;;;;;;;;4867631;29;20252;-73
2022/03/12 04:01:14;;;;;;;7.30;4.10;;;;;;;;;;4906820;29;20223;-72
2022/03/12 04:03:49;;;;;;;5.10;4.13;;;;;;;;;;4884321;29;20242;-72
2022/03/12 04:06:16;;;;;;;6.17;4.10;;;;;;;;;;4877191;29;20231;-73
2022/03/12 04:08:42;;;;;;;6.63;3.87;;;;;;;;;;4899897;29;20266;-73
2022/03/12 04:11:13;;;;;;;7.07;3.93;;;;;;;;;;4905422;29;20220;-72
2022/03/12 04:13:40;;;;;;;5.97;4.50;;;;;;;;;;4912454;29;20232;-73
2022/03/12 04:16:08;;;;;;;8.67;4.30;;;;;;;;;;4923322;29;20244;-72
2022/03/12 04:18:46;;;;;;;4.57;3.67;;;;;;;;;;4896603;29;20236;-72
2022/03/12 04:21:16;;;;;;;6.07;4.17;;;;;;;;;;4911327;29;20235;-72
2022/03/12 04:23:44;;;;;;;6.93;4.23;;;;;;;;;;4902430;29;20228;-73
2022/03/12 04:26:14;;;;;;;5.03;3.97;;;;;;;;;;4911631;29;20224;-73
2022/03/12 04:28:42;;;;;;;6.77;4.13;;;;;;;;;;4867044;29;20238;-73
2022/03/12 04:31:10;;;;;;;5.33;4.20;;;;;;;;;;4882670;29;20256;-73
2022/03/12 04:33:38;;;;;;;4.63;3.57;;;;;;;;;;4887983;29;20236;-73
2022/03/12 04:36:04;;;;;;;7.17;4.33;;;;;;;;;;4902292;29;20242;-73
2022/03/12 04:38:29;;;;;;;6.10;3.97;;;;;;;;;;4877040;29;20239;-73
2022/03/12 04:40:55;;;;;;;6.37;3.97;;;;;;;;;;4917056;29;20703;-73
2022/03/12 04:43:28;;;;;;;6.53;4.07;;;;;;;;;;4900501;29;20617;-73
2022/03/12 04:45:58;;;;;;;6.03;4.30;;;;;;;;;;4877730;29;20331;-72
2022/03/12 04:48:26;;;;;;;5.43;4.30;;;;;;;;;;4900466;29;20683;-72
2022/03/12 04:50:52;;;;;;;5.33;4.40;;;;;;;;;;4898811;29;20231;-74
2022/03/12 04:53:17;;;;;;;4.30;3.90;;;;;;;;;;4909193;29;20228;-73
2022/03/12 04:55:44;;;;;;;6.03;4.30;;;;;;;;;;4893614;29;20232;-73
2022/03/12 04:58:12;;;;;;;5.67;4.30;;;;;;;;;;4876196;29;20268;-74
2022/03/12 05:00:39;;;;;;;4.43;3.87;;;;;;;;;;4912438;29;20227;-73
2022/03/12 05:03:11;;;;;;;6.27;3.73;;;;;;;;;;4869834;29;20315;-74
2022/03/12 05:05:43;;;;;;;5.23;3.97;;;;;;;;;;4900015;29;20294;-72
2022/03/12 05:08:14;;;;;;;5.70;3.93;;;;;;;;;;4882602;29;20232;-73
2022/03/12 05:10:44;;;;;;;5.63;4.30;;;;;;;;;;4910936;29;20264;-73
2022/03/12 05:13:12;;;;;;;5.20;4.00;;;;;;;;;;4880220;29;20254;-73
2022/03/12 05:15:38;;;;;;;7.37;4.27;;;;;;;;;;4898564;29;20299;-73
2022/03/12 05:18:11;;;;;;;6.37;3.90;;;;;;;;;;4897307;29;20700;-72
2022/03/12 05:20:37;;;;;;;6.33;4.17;;;;;;;;;;4894590;29;20232;-73
2022/03/12 05:23:04;;;;;;;5.60;3.83;;;;;;;;;;4898795;29;20244;-74
2022/03/12 05:25:32;;;;;;;7.10;4.07;;;;;;;;;;4875735;29;20766;-74
2022/03/12 05:27:58;;;;;;;7.40;4.10;;;;;;;;;;4879683;29;20234;-73
2022/03/12 05:30:27;;;;;;;6.40;3.90;;;;;;;;;;4879854;29;20220;-74
2022/03/12 05:32:57;;;;;;;5.20;3.93;;;;;;;;;;4912710;29;20628;-73
2022/03/12 05:35:23;;;;;;;5.37;3.80;;;;;;;;;;4913567;29;20298;-73
2022/03/12 05:37:50;;;;;;;4.93;3.90;;;;;;;;;;4909146;29;20271;-73
2022/03/12 05:40:18;;;;;;;4.63;3.90;;;;;;;;;;4913667;29;20259;-73
2022/03/12 05:42:44;;;;;;;6.80;3.80;;;;;;;;;;4866809;29;20220;-73
2022/03/12 05:45:09;;;;;;;6.27;4.00;;;;;;;;;;4904932;29;20349;-73
2022/03/12 05:47:39;;;;;;;5.87;3.93;;;;;;;;;;4915538;29;20236;-74
2022/03/12 05:50:10;;;;;;;6.60;4.40;;;;;;;;;;4892342;29;20267;-74
2022/03/12 05:52:37;;;;;;;4.13;3.70;;;;;;;;;;4888219;29;20714;-73
2022/03/12 05:55:04;;;;;;;6.00;4.47;;;;;;;;;;4895169;29;20228;-74
2022/03/12 05:57:32;;;;;;;5.67;4.07;;;;;;;;;;4897359;29;20235;-72
2022/03/12 06:00:08;;;;;;;8.60;4.47;;;;;;;;;;4893968;29;20298;-73
2022/03/12 06:02:41;;;;;;;5.07;3.73;;;;;;;;;;4913346;29;20299;-73
2022/03/12 06:05:12;;;;;;;7.53;4.47;;;;;;;;;;4876567;29;20236;-73
2022/03/12 06:07:44;;;;;;;7.13;4.43;;;;;;;;;;4898908;29;20251;-74
2022/03/12 06:10:10;;;;;;;4.90;3.90;;;;;;;;;;4884768;29;20252;-73
2022/03/12 06:12:36;;;;;;;5.93;4.00;;;;;;;;;;4897669;29;20651;-73
2022/03/12 06:15:05;;;;;;;5.83;3.90;;;;;;;;;;4913767;29;20239;-73
2022/03/12 06:17:31;;;;;;;6.70;4.07;;;;;;;;;;4910461;29;20273;-73
2022/03/12 06:19:59;;;;;;;6.57;3.87;;;;;;;;;;4916898;29;20306;-73
2022/03/12 06:22:25;;;;;;;5.00;3.90;;;;;;;;;;4871394;29;20223;-74
2022/03/12 06:24:52;;;;;;;8.00;4.13;;;;;;;;;;4901748;29;20307;-74
2022/03/12 06:27:19;;;;;;;6.93;3.80;;;;;;;;;;4919053;29;20242;-73
2022/03/12 06:29:45;;;;;;;5.20;3.70;;;;;;;;;;4914725;29;20873;-74
2022/03/12 06:32:11;;;;;;;8.20;4.10;;;;;;;;;;4893392;29;20223;-74
2022/03/12 06:34:36;;;;;;;5.53;4.00;;;;;;;;;;4872931;29;20235;-73
2022/03/12 06:37:03;;;;;;;6.77;4.00;;;;;;;;;;4879422;29;20234;-74
2022/03/12 06:39:28;;;;;;;4.77;3.77;;;;;;;;;;4914259;29;20224;-74
2022/03/12 06:41:56;;;;;;;5.53;3.93;;;;;;;;;;4916301;29;20731;-73
2022/03/12 06:44:30;;;;;;;6.07;4.03;;;;;;;;;;4876795;29;20287;-73
2022/03/12 06:46:58;;;;;;;5.60;4.33;;;;;;;;;;4901638;29;20238;-73
2022/03/12 06:49:24;;;;;;;5.90;4.33;;;;;;;;;;4916545;29;20666;-75
2022/03/12 06:51:55;;;;;;;5.77;4.23;;;;;;;;;;4908109;29;20720;-74
2022/03/12 06:54:25;;;;;;;4.63;3.77;;;;;;;;;;4901167;29;20327;-73
2022/03/12 06:56:51;;;;;;;6.03;3.67;;;;;;;;;;4900275;29;20235;-74
2022/03/12 06:59:20;;;;;;;6.73;4.40;;;;;;;;;;4897211;29;20234;-74
2022/03/12 07:01:48;;;;;;;6.70;4.97;;;;;;;;;;4885826;29;20282;-73
2022/03/12 07:04:13;;;;;;;5.10;4.23;;;;;;;;;;4900058;29;20224;-74
2022/03/12 07:06:39;;;;;;;5.07;4.00;;;;;;;;;;4914245;29;20675;-73
2022/03/12 07:09:05;;;;;;;5.80;3.97;;;;;;;;;;4892041;29;20244;-73
2022/03/12 07:11:32;;;;;;;4.07;3.60;;;;;;;;;;4907465;29;20232;-73
2022/03/12 07:14:04;;;;;;;3.97;3.37;;;;;;;;;;4902573;29;20287;-73
2022/03/12 07:16:29;;;;;;;4.27;3.70;;;;;;;;;;4895075;29;20299;-74
2022/03/12 07:18:57;;;;;;;4.80;3.80;;;;;;;;;;4868708;29;20228;-73
2022/03/12 07:21:25;;;;;;;7.13;4.00;;;;;;;;;;4915892;29;20230;-73
2022/03/12 07:23:54;;;;;;;5.33;3.57;;;;;;;;;;4916290;29;20247;-74
2022/03/12 07:26:23;;;;;;;5.40;3.80;;;;;;;;;;4900778;29;20358;-74
2022/03/12 07:28:49;;;;;;;5.70;3.60;;;;;;;;;;4915462;29;20627;-73
2022/03/12 07:31:22;;;;;;;4.57;3.60;;;;;;;;;;4916523;29;20238;-74
2022/03/12 07:33:47;;;;;;;4.23;3.17;;;;;;;;;;4882604;29;20235;-74
2022/03/12 07:36:18;;;;;;;4.13;3.60;;;;;;;;;;4916898;29;20260;-74
2022/03/12 07:38:44;;;;;;;5.70;3.70;;;;;;;;;;4917371;29;20794;-72
2022/03/12 07:41:10;;;;;;;5.13;3.90;;;;;;;;;;4891581;29;20244;-73
2022/03/12 07:43:38;;;;;;;7.10;3.70;;;;;;;;;;4885420;29;20238;-73
2022/03/12 07:46:06;;;;;;;4.27;3.63;;;;;;;;;;4922421;29;20661;-74
2022/03/12 07:48:32;;;;;;;5.77;3.60;;;;;;;;;;4920802;29;20236;-72
2022/03/12 07:51:15;;;;;;;4.53;3.73;;;;;;;;;;4883261;29;20302;-72
2022/03/12 07:53:44;;;;;;;5.97;3.90;;;;;;;;;;4919106;29;20284;-73
2022/03/12 07:56:13;;;;;;;4.93;3.57;;;;;;;;;;4921932;29;20232;-73
2022/03/12 07:58:39;;;;;;;4.97;3.40;;;;;;;;;;4888874;29;20314;-73
2022/03/12 08:01:05;;;;;;;5.20;3.40;;;;;;;;;;4905356;29;20234;-72
2022/03/12 08:03:35;;;;;;;3.37;2.87;;;;;;;;;;4886992;29;20784;-74
2022/03/12 08:06:04;;;;;;;5.53;3.60;;;;;;;;;;4903420;29;20295;-73
2022/03/12 08:08:30;;;;;;;5.23;3.63;;;;;;;;;;4877779;29;20241;-74
2022/03/12 08:13:45;;;;;;;4.60;3.20;;;;;;;;;;4892783;29;20227;-73
2022/03/12 08:16:15;;;;;;;4.43;3.33;;;;;;;;;;4874931;29;20232;-71
2022/03/12 08:18:41;;;;;;;3.97;3.37;;;;;;;;;;4895233;29;20228;-72
2022/03/12 08:21:10;;;;;;;4.23;3.23;;;;;;;;;;4902950;29;20246;-72
2022/03/12 08:23:36;;;;;;;5.33;3.50;;;;;;;;;;4881341;29;20240;-72
2022/03/12 08:26:11;;;;;;;4.30;3.43;;;;;;;;;;4885442;29;20610;-73
2022/03/12 08:28:43;;;;;;;3.90;3.23;;;;;;;;;;4904543;29;20236;-73
2022/03/12 08:31:09;;;;;;;6.33;3.37;;;;;;;;;;4895818;29;20235;-72
2022/03/12 08:33:39;;;;;;;5.17;3.37;;;;;;;;;;4895267;29;20735;-72
2022/03/12 08:36:05;;;;;;;3.50;2.90;;;;;;;;;;4902321;29;20267;-73
2022/03/12 08:38:32;;;;;;;5.00;3.17;;;;;;;;;;4899912;29;20323;-72
2022/03/12 08:41:00;;;;;;;3.87;3.20;;;;;;;;;;4913866;29;20240;-73
2022/03/12 08:43:28;;;;;;;4.17;3.50;;;;;;;;;;4882541;29;20233;-74
2022/03/12 08:45:54;;;;;;;4.33;3.10;;;;;;;;;;4905763;29;20268;-73
2022/03/12 08:48:22;;;;;;;5.53;3.50;;;;;;;;;;4896156;29;20697;-73
2022/03/12 08:50:50;;;;;;;3.47;2.90;;;;;;;;;;4901572;29;20228;-73
2022/03/12 08:53:21;;;;;;;3.70;3.30;;;;;;;;;;4889468;29;20223;-74
2022/03/12 08:55:50;;;;;;;5.53;2.97;;;;;;;;;;4900712;29;20275;-74
2022/03/12 08:58:16;;;;;;;5.00;3.10;;;;;;;;;;4879039;29;20228;-73
2022/03/12 09:00:42;;;;;;;4.53;3.40;;;;;;;;;;4914006;29;20391;-74
2022/03/12 09:03:09;;;;;;;6.17;3.30;;;;;;;;;;4896015;29;20236;-73
2022/03/12 09:05:34;;;;;;;4.70;3.60;;;;;;;;;;4882641;29;20247;-74
2022/03/12 09:08:00;;;;;;;3.90;2.83;;;;;;;;;;4864381;29;20612;-75
2022/03/12 09:10:25;;;;;;;3.77;3.17;;;;;;;;;;4910829;29;20240;-74
2022/03/12 09:12:51;;;;;;;4.47;3.20;;;;;;;;;;4912173;29;20256;-72
2022/03/12 09:15:20;;;;;;;4.17;3.37;;;;;;;;;;4914172;29;20229;-73
2022/03/12 09:17:45;;;;;;;3.63;3.30;;;;;;;;;;4897193;29;20228;-73
2022/03/12 09:20:11;;;;;;;5.07;2.90;;;;;;;;;;4896878;29;20240;-74
2022/03/12 09:22:40;;;;;;;4.80;3.10;;;;;;;;;;4879147;29;20252;-75
2022/03/12 09:25:08;;;;;;;4.13;2.97;;;;;;;;;;4902936;29;20651;-73
2022/03/12 09:27:38;;;;;;;3.90;3.27;;;;;;;;;;4890006;29;20232;-72
2022/03/12 09:30:08;;;;;;;4.60;3.30;;;;;;;;;;4890317;29;20332;-72
2022/03/12 09:32:34;;;;;;;4.37;3.07;;;;;;;;;;4897718;29;20654;-73
2022/03/12 09:35:04;;;;;;;3.77;3.03;;;;;;;;;;4882186;29;20607;-74
2022/03/12 09:37:30;;;;;;;6.73;3.30;;;;;;;;;;4898614;29;20716;-73
2022/03/12 09:39:59;;;;;;;3.83;3.17;;;;;;;;;;4895085;29;20242;-74
2022/03/12 09:42:28;;;;;;;4.90;3.70;;;;;;;;;;4909017;29;20288;-74
2022/03/12 09:44:54;;;;;;;3.57;3.13;;;;;;;;;;4895311;29;20288;-75
2022/03/12 09:47:22;;;;;;;5.43;3.30;;;;;;;;;;4911125;29;20802;-74
2022/03/12 09:49:47;;;;;;;4.17;3.27;;;;;;;;;;4865353;29;20232;-73
2022/03/12 09:52:17;;;;;;;5.03;3.90;;;;;;;;;;4913612;29;20734;-73
2022/03/12 09:54:42;;;;;;;5.00;3.57;;;;;;;;;;4895572;29;20235;-73
2022/03/12 09:57:12;;;;;;;5.87;3.60;;;;;;;;;;4890004;29;20272;-75
2022/03/12 09:59:38;;;;;;;4.93;3.30;;;;;;;;;;4913878;29;20228;-77
2022/03/12 10:02:04;;;;;;;4.27;3.40;;;;;;;;;;4880864;29;20752;-74
2022/03/12 10:04:35;;;;;;;4.63;3.70;;;;;;;;;;4882070;29;20232;-73
2022/03/12 10:07:03;;;;;;;4.03;3.10;;;;;;;;;;4913469;29;20263;-75
2022/03/12 10:09:29;;;;;;;4.97;3.33;;;;;;;;;;4913875;29;20251;-73
2022/03/12 10:11:55;;;;;;;4.10;3.20;;;;;;;;;;4880262;29;20232;-74
2022/03/12 10:14:22;;;;;;;5.97;3.57;;;;;;;;;;4918148;29;20239;-73
2022/03/12 10:16:48;;;;;;;4.33;3.70;;;;;;;;;;4918183;29;20235;-73
2022/03/12 10:19:14;;;;;;;4.50;3.60;;;;;;;;;;4899700;29;20220;-73
2022/03/12 10:21:42;;;;;;;4.07;3.67;;;;;;;;;;4894888;29;20286;-73
2022/03/12 10:24:12;;;;;;;4.03;3.53;;;;;;;;;;4889660;29;20223;-75
2022/03/12 10:26:42;;;;;;;4.30;3.73;;;;;;;;;;4898393;29;20227;-74
2022/03/12 10:29:12;;;;;;;5.20;3.50;;;;;;;;;;4913287;29;20299;-74
2022/03/12 10:31:41;;;;;;;5.10;3.33;;;;;;;;;;4892750;29;20260;-73
2022/03/12 10:34:23;;;;;;;4.53;3.50;;;;;;;;;;4911445;29;20626;-74
2022/03/12 10:36:49;;;;;;;4.13;3.43;;;;;;;;;;4858378;29;20641;-73
2022/03/12 10:39:17;;;;;;;4.27;3.70;;;;;;;;;;4891419;29;20219;-74
2022/03/12 10:41:45;;;;;;;6.80;3.53;;;;;;;;;;4888471;29;20897;-74
2022/03/12 10:44:11;;;;;;;4.53;3.80;;;;;;;;;;4865600;29;20212;-74
2022/03/12 10:46:44;;;;;;;4.23;3.30;;;;;;;;;;4872674;29;20240;-74
2022/03/12 10:49:10;;;;;;;4.33;3.70;;;;;;;;;;4898448;29;20590;-73
2022/03/12 10:51:37;;;;;;;4.80;3.43;;;;;;;;;;4882012;29;20228;-74
2022/03/12 10:54:08;;;;;;;5.40;3.33;;;;;;;;;;4874163;29;20264;-74
2022/03/12 10:56:42;;;;;;;5.10;3.73;;;;;;;;;;4899133;29;20319;-73
2022/03/12 10:59:24;;;;;;;5.80;3.80;;;;;;;;;;4883210;29;20224;-73
2022/03/12 11:01:56;;;;;;;4.47;3.73;;;;;;;;;;4895184;29;20654;-75
2022/03/12 11:04:26;;;;;;;4.13;3.50;;;;;;;;;;4901410;29;20224;-73
2022/03/12 11:06:57;;;;;;;4.13;3.47;;;;;;;;;;4915527;29;20287;-73
2022/03/12 11:09:36;;;;;;;5.00;3.37;;;;;;;;;;4921256;29;20243;-74
2022/03/12 11:12:04;;;;;;;5.53;3.67;;;;;;;;;;4887837;29;20316;-74
2022/03/12 11:14:30;;;;;;;5.47;4.33;;;;;;;;;;4875144;29;20236;-73
2022/03/12 11:16:58;;;;;;;6.80;3.80;;;;;;;;;;4903949;29;20247;-72
2022/03/12 11:19:42;;;;;;;5.83;3.90;;;;;;;;;;4919129;29;20224;-74
2022/03/12 11:22:12;;;;;;;4.00;3.60;;;;;;;;;;4889292;29;20220;-74
2022/03/12 11:24:50;;;;;;;5.33;4.20;;;;;;;;;;4894548;29;20228;-74
2022/03/12 11:27:31;;;;;;;5.37;4.20;;;;;;;;;;4918302;29;20382;-74
2022/03/12 11:30:08;;;;;;;5.00;3.67;;;;;;;;;;4885559;29;20228;-73
2022/03/12 11:32:36;;;;;;;5.47;4.00;;;;;;;;;;4883416;29;20235;-73
2022/03/12 11:35:08;;;;;;;5.53;3.63;;;;;;;;;;4890948;29;20710;-74
2022/03/12 11:37:36;;;;;;;6.10;4.20;;;;;;;;;;4892240;29;20232;-74
2022/03/12 11:40:10;;;;;;;6.20;3.97;;;;;;;;;;4901195;29;20243;-73
2022/03/12 11:42:36;;;;;;;5.77;3.83;;;;;;;;;;4908787;29;20688;-73
2022/03/12 11:45:09;;;;;;;5.40;4.23;;;;;;;;;;4916424;29;20220;-74
2022/03/12 11:47:40;;;;;;;7.33;4.20;;;;;;;;;;4884455;29;20301;-73
2022/03/12 11:50:10;;;;;;;6.37;3.97;;;;;;;;;;4921880;29;20250;-73
2022/03/12 11:52:36;;;;;;;6.40;3.53;;;;;;;;;;4917210;29;20243;-75
2022/03/12 11:55:02;;;;;;;5.17;4.07;;;;;;;;;;4933761;29;20296;-73
2022/03/12 11:57:30;;;;;;;6.03;3.93;;;;;;;;;;4919722;29;20232;-72
2022/03/12 11:59:56;;;;;;;6.17;4.20;;;;;;;;;;4913599;29;20712;-73
2022/03/12 12:02:31;;;;;;;5.50;4.23;;;;;;;;;;4919263;29;20232;-73
2022/03/12 12:05:12;;;;;;;5.10;3.87;;;;;;;;;;4910488;29;20290;-74
2022/03/12 12:07:43;;;;;;;5.17;4.40;;;;;;;;;;4884019;29;20232;-73
2022/03/12 12:10:10;;;;;;;4.40;3.97;;;;;;;;;;4908231;29;20236;-73
2022/03/12 12:12:35;;;;;;;5.30;4.10;;;;;;;;;;4911490;29;20565;-74
2022/03/12 12:15:05;;;;;;;4.07;3.67;;;;;;;;;;4882233;29;20227;-73
2022/03/12 12:17:33;;;;;;;7.13;4.23;;;;;;;;;;4883948;29;20314;-74
2022/03/12 12:19:59;;;;;;;4.87;3.87;;;;;;;;;;4918576;29;20322;-74
2022/03/12 12:22:27;;;;;;;4.83;4.07;;;;;;;;;;4913952;29;20221;-74
2022/03/12 12:24:54;;;;;;;4.90;4.10;;;;;;;;;;4890370;29;20327;-74
2022/03/12 12:27:23;;;;;;;4.77;4.37;;;;;;;;;;4914142;29;20255;-74
2022/03/12 12:29:55;;;;;;;7.27;4.17;;;;;;;;;;4899228;29;20232;-74
2022/03/12 12:32:22;;;;;;;4.90;4.10;;;;;;;;;;4913410;29;20594;-74
2022/03/12 12:35:05;;;;;;;5.63;4.20;;;;;;;;;;4877438;29;20248;-74
2022/03/12 12:37:48;;;;;;;5.10;4.30;;;;;;;;;;4911207;29;20235;-75
2022/03/12 12:40:17;;;;;;;5.63;4.20;;;;;;;;;;4914409;29;20348;-74
2022/03/12 12:42:45;;;;;;;4.43;4.03;;;;;;;;;;4910931;29;20232;-73
2022/03/12 12:45:17;;;;;;;5.73;4.13;;;;;;;;;;4881668;29;20714;-74
2022/03/12 12:47:43;;;;;;;5.93;4.30;;;;;;;;;;4896753;29;20243;-74
2022/03/12 12:50:20;;;;;;;5.13;4.33;;;;;;;;;;4874710;29;20232;-73
2022/03/12 12:53:12;;;;;;;4.77;3.87;;;;;;;;;;4897112;29;20220;-74
2022/03/12 12:55:40;;;;;;;4.80;4.20;;;;;;;;;;4897290;29;20323;-74
2022/03/12 12:58:10;;;;;;;5.70;4.23;;;;;;;;;;4873498;29;20327;-74
2022/03/12 13:00:37;;;;;;;6.50;4.43;;;;;;;;;;4915442;29;20224;-73
2022/03/12 13:03:31;;;;;;;5.43;4.47;;;;;;;;;;4888174;29;20232;-73
2022/03/12 13:05:57;;;;;;;6.13;4.47;;;;;;;;;;4896323;29;20235;-74
2022/03/12 13:08:42;;;;;;;5.10;4.23;;;;;;;;;;4895997;29;20236;-74
2022/03/12 13:11:27;;;;;;;4.90;4.18;;;;;;;;;;4905880;29;20772;-73
2022/03/12 13:14:03;;;;;;;7.28;4.38;;;;;;;;;;4881645;29;20236;-73
2022/03/12 13:17:03;;;;;;;5.17;4.50;;;;;;;;;;4891192;29;20287;-73
2022/03/12 13:19:33;;;;;;;5.63;4.47;;;;;;;;;;4898066;29;20227;-74
2022/03/12 13:22:03;;;;;;;6.33;4.50;;;;;;;;;;4897128;29;20727;-74
2022/03/12 13:25:10;;;;;;;4.97;4.10;;;;;;;;;;4914240;29;20242;-74
2022/03/12 13:27:36;;;;;;;6.17;4.53;;;;;;;;;;4911208;29;20924;-74
2022/03/12 13:30:16;;;;;;;6.03;4.63;;;;;;;;;;4867004;29;20227;-74
2022/03/12 13:32:43;;;;;;;5.63;4.73;;;;;;;;;;4911927;29;20231;-74
2022/03/12 13:35:09;;;;;;;5.82;4.63;;;;;;;;;;4885637;29;20227;-73
2022/03/12 13:37:36;;;;;;;5.00;4.50;;;;;;;;;;4913767;29;20591;-74
2022/03/12 13:40:05;;;;;;;5.32;4.82;;;;;;;;;;4874176;29;20231;-74
2022/03/12 13:42:30;;;;;;;5.57;4.78;;;;;;;;;;4915587;29;20224;-74
2022/03/12 13:44:58;;;;;;;6.63;5.00;;;;;;;;;;4897575;29;20282;-74
2022/03/12 13:47:25;;;;;;;7.78;4.78;;;;;;;;;;4896795;29;20236;-73
2022/03/12 13:49:51;;;;;;;6.20;4.53;;;;;;;;;;4914080;29;20220;-74
2022/03/12 13:52:20;;;;;;;7.97;4.72;;;;;;;;;;4866191;29;20216;-73
2022/03/12 13:55:03;;;;;;;5.65;4.70;;;;;;;;;;4881493;29;20231;-74
2022/03/12 13:57:29;;;;;;;6.47;4.80;;;;;;;;;;4878749;29;20236;-75
2022/03/12 14:00:09;;;;;;;5.13;4.35;;;;;;;;;;4888150;29;20256;-75
2022/03/12 14:02:54;;;;;;;4.88;4.35;;;;;;;;;;4912454;29;20318;-74
2022/03/12 14:05:21;;;;;;;6.43;4.72;;;;;;;;;;4881941;29;20573;-75
2022/03/12 14:07:53;;;;;;;5.22;4.72;;;;;;;;;;4860414;29;20263;-74
2022/03/12 14:10:18;;;;;;;6.35;4.22;;;;;;;;;;4894767;29;20228;-74
2022/03/12 14:12:46;;;;;;;8.63;4.70;;;;;;;;;;4877889;29;20232;-74
2022/03/12 14:15:13;;;;;;;7.32;4.80;;;;;;;;;;4868473;29;20239;-74
2022/03/12 14:17:41;;;;;;;5.75;4.65;;;;;;;;;;4879049;29;20228;-75
2022/03/12 14:20:13;;;;;;;7.03;4.65;;;;;;;;;;4884513;29;20743;-74
2022/03/12 14:22:40;;;;;;;6.45;5.07;;;;;;;;;;4914340;29;20224;-74
2022/03/12 14:25:11;;;;;;;6.03;4.68;;;;;;;;;;4913676;29;20224;-75
2022/03/12 14:27:37;;;;;;;6.82;4.80;;;;;;;;;;4897790;29;20238;-75
2022/03/12 14:30:08;;;;;;;4.88;4.38;;;;;;;;;;4896671;29;20662;-74
2022/03/12 14:32:35;;;;;;;6.22;4.55;;;;;;;;;;4910332;29;20229;-74
2022/03/12 14:35:06;;;;;;;7.70;4.85;;;;;;;;;;4910305;29;20260;-77
2022/03/12 14:37:34;;;;;;;6.53;4.72;;;;;;;;;;4901929;29;20715;-74
2022/03/12 14:40:00;;;;;;;6.20;4.60;;;;;;;;;;4868637;29;20241;-74
2022/03/12 14:42:29;;;;;;;7.63;4.80;;;;;;;;;;4901208;29;20236;-74
2022/03/12 14:44:54;;;;;;;6.90;5.25;;;;;;;;;;4899568;29;20239;-74
2022/03/12 14:47:25;;;;;;;7.95;4.68;;;;;;;;;;4897982;29;20789;-74
2022/03/12 14:49:54;;;;;;;7.60;4.78;;;;;;;;;;4897861;29;20271;-75
2022/03/12 14:52:30;;;;;;;6.43;5.00;;;;;;;;;;4899739;29;20239;-75
2022/03/12 14:54:58;;;;;;;7.35;4.57;;;;;;;;;;4894001;29;20310;-74
2022/03/12 14:57:27;;;;;;;8.55;5.10;;;;;;;;;;4884800;29;20283;-74